AirNav   SIMCOM
 
 1024 users online  

7CO6 Vantage View Airport
Rush, Colorado, USA


FAA INFORMATION EFFECTIVE 14 SEPTEMBER 2017

Location

FAA Identifier: 7CO6
Lat/Long: 38-45-37.0000N / 104-06-05.0000W
38-45.616667N / 104-06.083333W
38.7602778 / -104.1013889
(estimated)
Elevation: 5780 ft. / 1762 m (estimated)
From city: 5 miles S of RUSH, CO
Time zone: UTC -6 (UTC -7 during Standard Time)
Zip code: 80864

Airport Operations

Airport use: Private use. Permission required prior to landing
Activation date: 08/2009
Control tower: no
ARTCC: DENVER CENTER
FSS: DENVER FLIGHT SERVICE STATION
Attendance: UNATNDD
Segmented circle: no

Airport Communications

WX ASOS at CO90 (9 nm W): 121.425 (719-683-3346)

Nearby radio navigation aids

VOR radial/distance  VOR name  Freq  Var
HGOr254/22.7HUGO VOR/DME112.1007E
BRKr106/27.2BLACK FOREST VOR/DME112.5008E
FCSr069/31.1BUTTS VOR/DME108.8012E
PUBr021/31.9PUEBLO VORTAC116.7008E

 
NDB name  Hdg/Dist  Freq  Var  ID
IRONHORSE069/30.933512EIHS .. .... ...

Airport Services

Runway Information

Runway 17/35

Dimensions: 2200 x 75 ft. / 671 x 23 m
Surface: turf
RUNWAY 17  RUNWAY 35
Traffic pattern: leftleft

Airport Ownership and Management from official FAA records

Ownership: Privately-owned
Owner: SAM DUPRE
18205 GRAY MARE LANE
PEYTON, CO 80831
Phone 719-362-3349
Manager: SAM DUPRE
18205 GRAY MARE LANE
PEYTON, CO 80831
Phone 719-362-3349

Additional Remarks

OWNER DESIRES ARPT NOT BE CHARTED.

Instrument Procedures

There are no published instrument procedures at 7CO6.

Some nearby airports with instrument procedures:

KCOS - City of Colorado Springs Municipal Airport (28 nm W)
KPUB - Pueblo Memorial Airport (34 nm SW)
KLHX - La Junta Municipal Airport (51 nm SE)
1V6 - Fremont County Airport (51 nm SW)
KAPA - Centennial Airport (60 nm NW)
 
Loc | Ops | Rwys | IFR | FBO | Links
Com | Nav | Svcs | Stats | Notes


 
Aerial photo
No photo
 
Sectional chart

 
Airport distance calculator
Flying to Vantage View Airport? Find the distance to fly.

From to 7CO6

Sunrise and sunset
Times for 25-Sep-2017
 Local
(UTC-6)
 Zulu
(UTC)
Morning civil twilight06:2112:21
Sunrise06:4812:48
Sunset18:4800:48
Evening civil twilight19:1501:15

Current date and time
Zulu (UTC)  26-Sep-2017 00:18:05
Local (UTC-6)  25-Sep-2017 18:18:05
 
METAR
KFLY 
25nm NW 
252355Z AUTO 08004KT 10SM OVC026 10/04 A3010 RMK AO2 LTG DSNT NW T00970037 10129 20096
KCOS 
29nm W 
252354Z 17011KT 10SM BKN032 BKN050 13/05 A3007 RMK AO2 SLP149 60000 T01280050 10144 20106 55001
KFCS 
32nm W 
252358Z AUTO 19006KT 10SM SCT032 OVC055 13/06 A3005 RMK AO2 SLP167 60000 T01270057 10135 20109 401350067 55001 $
KPUB 
34nm SW 
252353Z 15011KT 10SM OVC050 14/08 A3003 RMK AO2 SLP139 T01390078 10167 20139 53002
KAFF 
36nm W 
252358Z AUTO 28003KT 10SM OVC031 12/04 A3007 RMK AO2 SLP148 60000 T01160040 10122 20088 55001
KLIC 
37nm NE 
252355Z AUTO A3008 RMK AO2 SLPNO 53003 PWINO FZRANO PNO $
KMNH 
37nm NW 
252349Z AUTO 06008KT 10SM VCTS SCT022 BKN036 OVC055 07/03 A3011 RMK AO2
TAF
KCOS 
29nm W 
252113Z 2521/2618 VRB05KT P6SM VCSH SCT030 FM260000 05010KT P6SM SCT015 BKN025
KFCS 
32nm W 
252102Z 2521/2703 14009KT 9999 VCSH BKN030 OVC040 610409 QNH3005INS TEMPO 2521/2601 8000 -SHRA BECMG 2600/2601 15009KT 6000 BR SCT009 BKN015 OVC040 620409 QNH3006INS TEMPO 2607/2612 4800 BR BKN007 BECMG 2611/2612 15009KT 9999 NSW SCT009 BKN025 620409 QNH3014INS BECMG 2620/2621 15009KT 9999 SCT040 QNH3016INS TX11/2521Z TN06/2612Z
KPUB 
34nm SW 
252219Z 2522/2618 14010KT P6SM VCSH SCT035 BKN045 FM260100 07010KT P6SM SCT025 BKN035 FM260300 07008KT P6SM BKN040
KAFF 
36nm W 
252202Z 2522/2701 15009KT 9999 SCT015 BKN025 OVC040 600605 QNH3009INS BECMG 2600/2601 10009KT 9999 SCT008 BKN012 OVC040 620409 QNH3010INS BECMG 2607/2608 15009KT 6000 BR BKN008 OVC020 620409 QNH3018INS BECMG 2615/2616 15009KT 9999 NSW BKN015 620709 QNH3022INS BECMG 2617/2618 15009KT 9999 FEW015 SCT030 QNH3022INS TX12/2522Z TN06/2612Z LAST NO AMDS AFT 2600 NEXT 2611
NOTAMs
Click for the latest NOTAMs
NOTAMs are issued by the DoD/FAA and will open in a separate window not controlled by AirNav.

 

 
 

Would you like to see your business listed on this page?

 If your business provides an interesting product or service to pilots, flight crews, aircraft, or users of the Vantage View Airport, you should consider listing it here.  To start the listing process, click on the button below
 
Add a business
 

Other Pages about Vantage View Airport

Update a link
 
Copyright © AirNav, LLC. All rights reserved. Privacy Policy  Contact